Terminal Aerodrome Forecast
Issued by NWS Austin/San Antonio, TX

Home | Current Version | Previous Version | Text Only | Print | Product List | Glossary On
Versions: 1 2 3 4 5 6 7 8 9 10 11 12 13 14 15 16 17 18 19 20 21 22 23
000
FTUS44 KEWX 210538
TAFAUS
TAF
KAUS 210538Z 2106/2212 17007KT P6SM SKC
     FM211000 18006KT P6SM SCT013
      TEMPO 2110/2113 BKN013
     FM211500 15010KT P6SM SCT060
     FM220900 18003KT P6SM OVC015=

USA.gov is the U.S. government's official web portal to all federal, state and local government web resources and services.